Time;durP1;ratioP1;P1;durP2;ratioP2;P2;SDS_P1;SDS_P2;PMS_P1;PMS_P2;Temp;Humidity;BMP_temperature;BMP_pressure;BME280_temperature;BME280_humidity;BME280_pressure;Samples;Min_cycle;Max_cycle;Signal;HPM_P1;HPM_P2
2023/05/17 00:01:36;;;;;;;19.10;6.03;;;;;;;7.02;100.00;102460.22;4973652;28;20027;-76
2023/05/17 00:04:01;;;;;;;18.95;6.95;;;;;;;7.13;100.00;102476.25;4976974;28;20055;-77
2023/05/17 00:06:27;;;;;;;14.13;4.95;;;;;;;6.99;100.00;102460.31;4977309;28;20450;-75
2023/05/17 00:08:53;;;;;;;17.63;6.30;;;;;;;7.07;100.00;102478.94;4977726;28;20915;-75
2023/05/17 00:11:18;;;;;;;16.23;6.10;;;;;;;6.64;100.00;102415.66;4976883;28;20070;-76
2023/05/17 00:13:43;;;;;;;14.25;5.50;;;;;;;6.92;100.00;102459.56;4977247;28;20483;-75
2023/05/17 00:16:09;;;;;;;17.42;5.68;;;;;;;7.06;100.00;102484.94;4977235;28;20121;-76
2023/05/17 00:18:35;;;;;;;17.30;5.75;;;;;;;7.00;100.00;102478.25;4976906;28;20031;-74
2023/05/17 00:21:00;;;;;;;17.85;5.97;;;;;;;6.88;100.00;102452.78;4976999;28;20035;-74
2023/05/17 00:23:25;;;;;;;18.23;5.82;;;;;;;7.01;100.00;102473.94;4977114;28;20027;-74
2023/05/17 00:25:51;;;;;;;17.42;6.15;;;;;;;6.87;100.00;102458.81;4976842;28;20066;-74
2023/05/17 00:28:16;;;;;;;15.98;5.90;;;;;;;6.96;100.00;102486.88;4976712;28;20115;-73
2023/05/17 00:30:42;;;;;;;15.45;6.55;;;;;;;6.87;100.00;102464.78;4976869;28;20034;-74
2023/05/17 00:33:07;;;;;;;17.67;5.97;;;;;;;6.94;100.00;102477.50;4976958;28;20025;-74
2023/05/17 00:35:32;;;;;;;15.52;6.28;;;;;;;6.95;100.00;102485.19;4976974;28;20030;-74
2023/05/17 00:37:58;;;;;;;15.05;5.40;;;;;;;6.89;100.00;102481.03;4976849;28;20054;-74
2023/05/17 00:40:23;;;;;;;16.27;5.63;;;;;;;6.88;100.00;102479.34;4976672;28;20030;-74
2023/05/17 00:42:48;;;;;;;17.10;6.32;;;;;;;6.86;100.00;102483.66;4976567;28;20030;-73
2023/05/17 00:45:14;;;;;;;18.05;6.15;;;;;;;6.71;100.00;102462.59;4976266;28;20023;-74
2023/05/17 00:47:39;;;;;;;14.05;6.05;;;;;;;6.59;100.00;102440.59;4976567;28;20031;-74
2023/05/17 00:50:05;;;;;;;12.05;5.75;;;;;;;6.78;100.00;102477.81;4976481;28;20022;-75
2023/05/17 00:52:31;;;;;;;16.33;5.90;;;;;;;6.76;100.00;102477.03;4976439;28;20441;-75
2023/05/17 00:54:56;;;;;;;24.75;6.53;;;;;;;6.75;100.00;102472.75;4976515;28;20027;-75
2023/05/17 00:57:22;;;;;;;13.90;6.25;;;;;;;6.72;100.00;102469.44;4976423;28;20026;-74
2023/05/17 00:59:48;;;;;;;18.63;6.15;;;;;;;6.59;100.00;102461.97;4976211;28;20031;-75
2023/05/17 01:02:13;;;;;;;19.73;6.30;;;;;;;6.60;100.00;102481.63;4976438;28;20026;-74
2023/05/17 01:04:40;;;;;;;19.35;6.30;;;;;;;6.53;100.00;102490.31;4976100;28;20026;-75
2023/05/17 01:07:05;;;;;;;14.27;6.47;;;;;;;6.21;100.00;102424.25;4958440;28;20402;-74
2023/05/17 01:09:31;;;;;;;24.05;7.22;;;;;;;6.56;100.00;102476.56;4976221;28;20031;-75
2023/05/17 01:12:04;;;;;;;21.42;7.10;;;;;;;6.31;100.00;102433.44;4976007;28;20152;-75
2023/05/17 01:14:40;;;;;;;15.68;7.20;;;;;;;6.51;100.00;102476.69;4975083;28;20031;-75
2023/05/17 01:17:15;;;;;;;19.42;6.88;;;;;;;6.46;100.00;102481.03;4976045;28;20027;-75
2023/05/17 01:19:43;;;;;;;15.40;6.63;;;;;;;6.46;100.00;102493.03;4975882;28;20058;-75
2023/05/17 01:22:30;;;;;;;15.55;7.30;;;;;;;6.45;100.00;102491.34;4976019;28;20061;-76
2023/05/17 01:25:09;;;;;;;18.50;7.40;;;;;;;6.42;100.00;102491.41;4975611;28;20038;-77
2023/05/17 01:27:38;;;;;;;23.25;8.27;;;;;;;6.41;100.00;102493.13;4975917;28;20054;-75
2023/05/17 01:30:07;;;;;;;17.63;6.97;;;;;;;6.25;100.00;102458.38;4975966;28;20116;-75
2023/05/17 01:32:32;;;;;;;19.73;7.97;;;;;;;6.25;100.00;102464.34;4975625;28;20467;-75
2023/05/17 01:34:57;;;;;;;16.63;7.38;;;;;;;6.33;100.00;102474.47;4975547;28;20033;-74
2023/05/17 01:37:23;;;;;;;16.88;7.88;;;;;;;6.33;100.00;102479.59;4975621;28;20553;-78
2023/05/17 01:39:48;;;;;;;15.68;7.72;;;;;;;6.12;100.00;102447.50;4975633;28;20018;-76
2023/05/17 01:42:29;;;;;;;16.50;7.05;;;;;;;6.28;100.00;102486.53;4958037;28;20479;-74
2023/05/17 01:45:49;;;;;;;16.02;7.63;;;;;;;6.24;100.00;102475.47;4975449;28;20031;-75
2023/05/17 01:48:20;;;;;;;16.73;7.07;;;;;;;6.16;100.00;102474.78;4896851;29;20044;-84
2023/05/17 01:50:50;;;;;;;17.35;7.82;;;;;;;6.06;100.00;102473.25;4896898;29;20033;-82
2023/05/17 01:53:34;;;;;;;18.00;7.80;;;;;;;6.08;100.00;102476.63;4897035;29;20035;-84
2023/05/17 01:56:04;;;;;;;16.33;7.63;;;;;;;6.14;100.00;102488.50;4881245;29;20047;-82
2023/05/17 01:58:34;;;;;;;19.20;8.25;;;;;;;6.09;100.00;102490.28;4896479;29;20552;-84
2023/05/17 02:01:00;;;;;;;17.63;8.15;;;;;;;5.95;100.00;102462.34;4896710;29;20501;-86
2023/05/17 02:03:26;;;;;;;18.75;8.05;;;;;;;5.99;100.00;102471.66;4896672;29;20432;-84
2023/05/17 02:05:52;;;;;;;17.10;7.75;;;;;;;5.86;100.00;102445.34;4896655;29;20032;-82
2023/05/17 02:08:17;;;;;;;16.45;6.65;;;;;;;5.98;100.00;102473.38;4896681;29;20079;-85
2023/05/17 02:10:42;;;;;;;18.85;7.55;;;;;;;5.98;100.00;102478.50;4896408;29;20430;-84
2023/05/17 02:13:08;;;;;;;13.90;6.50;;;;;;;5.97;100.00;102484.50;4896746;29;20051;-85
2023/05/17 02:15:33;;;;;;;16.85;7.05;;;;;;;5.94;100.00;102481.16;4896573;29;20429;-85
2023/05/17 02:17:58;;;;;;;21.23;7.63;;;;;;;5.58;100.00;102421.91;4896649;29;20033;-83
2023/05/17 02:20:23;;;;;;;16.90;7.28;;;;;;;5.81;100.00;102442.03;4896474;29;20028;-84
2023/05/17 02:22:49;;;;;;;17.88;7.80;;;;;;;6.07;100.00;102471.53;4955833;28;20034;-82
2023/05/17 02:25:14;;;;;;;18.88;8.10;;;;;;;6.15;100.00;102475.66;4974733;28;20043;-84
2023/05/17 02:27:40;;;;;;;19.02;8.20;;;;;;;6.21;100.00;102470.41;4974888;28;20031;-82
2023/05/17 02:30:06;;;;;;;18.92;8.25;;;;;;;6.25;100.00;102479.72;4974553;28;20022;-85
2023/05/17 02:32:32;;;;;;;19.15;7.50;;;;;;;6.28;100.00;102486.53;4974922;28;20038;-80
2023/05/17 02:34:57;;;;;;;20.20;8.85;;;;;;;6.19;100.00;102461.03;4974470;28;20023;-75
2023/05/17 02:37:23;;;;;;;18.33;7.93;;;;;;;6.18;100.00;102459.34;4974546;28;20371;-75
2023/05/17 02:39:48;;;;;;;17.77;7.97;;;;;;;6.42;100.00;102497.38;4974625;28;20033;-75
2023/05/17 02:42:13;;;;;;;16.70;8.23;;;;;;;6.39;100.00;102487.19;4974599;28;20113;-75
2023/05/17 02:44:39;;;;;;;17.63;7.53;;;;;;;6.56;100.00;102485.13;4974471;28;20062;-74
2023/05/17 02:47:04;;;;;;;20.92;7.38;;;;;;;6.49;100.00;102463.03;4974442;28;20022;-75
2023/05/17 02:49:30;;;;;;;17.52;8.50;;;;;;;6.54;100.00;102457.81;4974259;28;20522;-82
2023/05/17 02:51:55;;;;;;;18.33;9.20;;;;;;;6.78;100.00;102484.69;4974340;28;20019;-85
2023/05/17 02:54:20;;;;;;;19.13;9.07;;;;;;;6.72;100.00;102474.56;4974161;28;20033;-84
2023/05/17 02:56:46;;;;;;;18.48;9.07;;;;;;;6.79;100.00;102482.09;4974345;28;20022;-81
2023/05/17 02:59:11;;;;;;;21.42;8.73;;;;;;;6.89;100.00;102482.75;4956936;28;20033;-85
2023/05/17 03:01:36;;;;;;;18.90;8.63;;;;;;;6.84;100.00;102474.28;4974128;28;20034;-84
2023/05/17 03:04:02;;;;;;;18.27;8.63;;;;;;;6.98;100.00;102497.09;4974128;28;20038;-79
2023/05/17 03:06:27;;;;;;;19.60;9.45;;;;;;;6.89;100.00;102470.78;4974105;28;20105;-76
2023/05/17 03:08:52;;;;;;;18.38;8.68;;;;;;;6.92;100.00;102482.69;4974275;28;20082;-76
2023/05/17 03:11:18;;;;;;;23.25;9.25;;;;;;;6.92;100.00;102485.25;4973989;28;20051;-79
2023/05/17 03:13:45;;;;;;;19.30;8.70;;;;;;;7.04;100.00;102509.81;4974052;28;20026;-75
2023/05/17 03:16:10;;;;;;;17.75;8.88;;;;;;;6.99;100.00;102491.97;4956608;28;20505;-76
2023/05/17 03:18:36;;;;;;;19.75;9.23;;;;;;;7.13;100.00;102509.63;4973885;28;20077;-77
2023/05/17 03:21:01;;;;;;;21.65;9.63;;;;;;;7.01;100.00;102484.22;4973578;28;20128;-77
2023/05/17 03:23:26;;;;;;;22.42;9.10;;;;;;;7.14;100.00;102503.63;4973921;28;20081;-76
2023/05/17 03:25:52;;;;;;;20.80;8.73;;;;;;;7.03;100.00;102488.44;4973792;28;20081;-76
2023/05/17 03:28:17;;;;;;;21.95;9.38;;;;;;;7.18;100.00;102516.38;4974021;28;20038;-78
2023/05/17 03:30:42;;;;;;;21.92;9.07;;;;;;;7.12;100.00;102519.06;4973983;28;20030;-77
2023/05/17 03:33:07;;;;;;;16.80;8.00;;;;;;;7.01;100.00;102513.31;4973707;28;20033;-76
2023/05/17 03:35:33;;;;;;;20.13;8.68;;;;;;;6.95;100.00;102516.00;4973937;28;20027;-76
2023/05/17 03:37:58;;;;;;;20.15;9.38;;;;;;;6.90;100.00;102526.38;4976050;28;20019;-78
2023/05/17 03:40:23;;;;;;;20.48;8.55;;;;;;;6.75;100.00;102510.44;4977876;28;20092;-76
2023/05/17 03:42:50;;;;;;;22.73;9.27;;;;;;;6.79;100.00;102533.47;4977769;28;20547;-75
2023/05/17 03:45:16;;;;;;;19.58;9.48;;;;;;;6.57;100.00;102514.19;4977595;28;20475;-78
2023/05/17 03:47:41;;;;;;;20.05;8.75;;;;;;;6.64;100.00;102538.88;4977498;28;20065;-75
2023/05/17 03:50:07;;;;;;;24.88;9.10;;;;;;;6.54;100.00;102522.81;4977433;28;20026;-85
2023/05/17 03:52:33;;;;;;;19.33;8.98;;;;;;;6.59;100.00;102535.56;4977831;28;20035;-86
2023/05/17 03:54:58;;;;;;;22.10;8.50;;;;;;;6.64;100.00;102541.44;4977639;28;20577;-86
2023/05/17 03:57:23;;;;;;;24.90;9.50;;;;;;;6.66;100.00;102536.28;4977524;28;20368;-85
2023/05/17 03:59:49;;;;;;;21.98;8.25;;;;;;;6.65;100.00;102543.13;4977534;28;20031;-74
2023/05/17 04:02:15;;;;;;;20.45;8.07;;;;;;;6.71;100.00;102547.31;4977377;28;20058;-85
2023/05/17 04:04:41;;;;;;;21.15;9.25;;;;;;;6.55;100.00;102521.09;4977199;28;20382;-86
2023/05/17 04:07:07;;;;;;;22.40;9.35;;;;;;;6.53;100.00;102527.97;4977372;28;20107;-79
2023/05/17 04:09:33;;;;;;;14.80;8.45;;;;;;;6.54;100.00;102525.38;4977384;28;20027;-77
2023/05/17 04:11:59;;;;;;;19.00;9.05;;;;;;;6.48;100.00;102515.22;4976997;28;20126;-76
2023/05/17 04:14:24;;;;;;;20.08;8.32;;;;;;;6.73;100.00;102548.97;4977306;28;20532;-79
2023/05/17 04:16:50;;;;;;;25.00;9.38;;;;;;;6.55;100.00;102513.38;4976940;28;20031;-79
2023/05/17 04:19:15;;;;;;;26.13;8.93;;;;;;;6.76;100.00;102548.06;4976996;28;20063;-76
2023/05/17 04:21:40;;;;;;;26.20;8.80;;;;;;;6.73;100.00;102541.28;4977017;28;20035;-75
2023/05/17 04:24:06;;;;;;;19.02;8.65;;;;;;;6.88;100.00;102558.97;4976951;28;20050;-78
2023/05/17 04:26:31;;;;;;;21.23;8.25;;;;;;;6.84;100.00;102547.03;4977085;28;20081;-75
2023/05/17 04:28:57;;;;;;;19.05;8.25;;;;;;;6.97;100.00;102555.34;4976769;28;20027;-76
2023/05/17 04:31:22;;;;;;;19.95;9.52;;;;;;;7.01;100.00;102564.69;4976773;28;20041;-75
2023/05/17 04:33:47;;;;;;;20.88;8.80;;;;;;;7.01;100.00;102558.72;4977016;28;20030;-76
2023/05/17 04:36:13;;;;;;;19.52;8.68;;;;;;;7.09;100.00;102567.94;4976662;28;20092;-76
2023/05/17 04:38:38;;;;;;;18.35;8.85;;;;;;;7.19;100.00;102571.19;4976926;28;20109;-76
2023/05/17 04:41:05;;;;;;;17.10;7.65;;;;;;;7.25;100.00;102570.19;4976695;28;20429;-75
2023/05/17 04:43:31;;;;;;;21.67;9.07;;;;;;;7.27;100.00;102565.84;4976556;28;20022;-76
2023/05/17 04:45:57;;;;;;;21.25;8.27;;;;;;;7.43;100.00;102582.63;4976945;28;20027;-80
2023/05/17 04:48:23;;;;;;;23.70;9.18;;;;;;;7.52;100.00;102584.16;4976031;28;20041;-76
2023/05/17 04:50:48;;;;;;;21.23;9.13;;;;;;;7.42;100.00;102557.81;4976083;28;20097;-81
2023/05/17 04:53:16;;;;;;;22.13;8.48;;;;;;;7.73;100.00;102597.38;4976639;28;20084;-79
2023/05/17 04:55:42;;;;;;;19.60;9.15;;;;;;;7.88;100.00;102597.94;4976659;28;20030;-82
2023/05/17 04:58:08;;;;;;;19.95;7.93;;;;;;;7.82;100.00;102557.75;4976260;28;20027;-75
2023/05/17 05:00:33;;;;;;;16.52;7.90;;;;;;;8.26;100.00;102605.56;4976427;28;20027;-74
2023/05/17 05:03:00;;;;;;;24.52;8.57;;;;;;;8.67;100.00;102575.38;4976207;28;20078;-81
2023/05/17 05:05:25;;;;;;;20.75;8.45;;;;;;;9.90;100.00;102599.22;4976020;28;20058;-81
2023/05/17 05:07:51;;;;;;;18.67;7.43;;;;;;;11.24;100.00;102598.06;4976165;28;20034;-84
2023/05/17 05:10:16;;;;;;;14.45;6.55;;;;;;;12.10;95.66;102593.00;4976230;28;20438;-83
2023/05/17 05:12:42;;;;;;;18.05;6.78;;;;;;;13.13;89.59;102610.97;4975891;28;20388;-83
2023/05/17 05:15:08;;;;;;;15.77;5.95;;;;;;;13.95;83.88;102614.88;4976170;28;20371;-81
2023/05/17 05:17:33;;;;;;;13.73;5.88;;;;;;;14.70;79.89;102610.31;4975972;28;20478;-82
2023/05/17 05:19:58;;;;;;;14.18;5.93;;;;;;;15.42;76.69;102595.09;4975907;28;20105;-83
2023/05/17 05:22:24;;;;;;;13.60;5.43;;;;;;;16.27;71.32;102630.28;4957757;28;20039;-78
2023/05/17 05:24:50;;;;;;;15.25;4.82;;;;;;;16.31;68.70;102623.94;4975915;28;20027;-81
2023/05/17 05:27:15;;;;;;;10.80;5.30;;;;;;;16.65;67.90;102633.25;4975798;28;20027;-75
2023/05/17 05:29:41;;;;;;;12.82;5.13;;;;;;;16.93;66.17;102635.06;4975896;28;20387;-74
2023/05/17 05:32:07;;;;;;;15.68;4.82;;;;;;;17.02;65.01;102621.44;4975801;28;20027;-75
2023/05/17 05:34:32;;;;;;;13.05;4.53;;;;;;;17.44;63.94;102636.19;4975836;28;20042;-75
2023/05/17 05:36:58;;;;;;;12.95;5.28;;;;;;;17.67;62.77;102611.19;4975516;28;20029;-76
2023/05/17 05:39:23;;;;;;;14.15;4.75;;;;;;;18.09;59.09;102593.66;4975547;28;20035;-76
2023/05/17 05:41:50;;;;;;;16.67;5.07;;;;;;;18.34;59.19;102630.31;4975649;28;20041;-81
2023/05/17 05:44:15;;;;;;;11.13;4.65;;;;;;;18.61;57.40;102624.16;4975520;28;20030;-76
2023/05/17 05:46:41;;;;;;;12.63;4.95;;;;;;;19.12;57.35;102638.06;4975631;28;20039;-76
2023/05/17 05:49:06;;;;;;;13.98;4.70;;;;;;;19.98;54.27;102647.63;4975581;28;20027;-76
2023/05/17 05:51:32;;;;;;;12.48;4.57;;;;;;;20.47;52.15;102649.22;4975296;28;20027;-75
2023/05/17 05:53:58;;;;;;;11.82;4.47;;;;;;;20.59;51.30;102650.91;4975065;28;20030;-78
2023/05/17 05:56:26;;;;;;;11.20;4.13;;;;;;;21.12;49.36;102619.63;4975274;28;20027;-75
2023/05/17 05:58:51;;;;;;;11.27;3.90;;;;;;;21.34;47.58;102648.53;4975502;28;20033;-75
2023/05/17 06:01:16;;;;;;;11.82;4.07;;;;;;;20.74;48.13;102660.22;4974970;28;20185;-77
2023/05/17 06:03:42;;;;;;;13.15;4.22;;;;;;;20.90;46.41;102662.50;4975408;28;20154;-79
2023/05/17 06:06:07;;;;;;;13.20;3.83;;;;;;;20.56;45.80;102659.88;4974915;28;20035;-76
2023/05/17 06:08:33;;;;;;;14.38;3.83;;;;;;;20.51;46.08;102666.41;4974822;28;20038;-77
2023/05/17 06:10:58;;;;;;;11.65;4.10;;;;;;;19.85;47.16;102634.56;4974951;28;20103;-82
2023/05/17 06:13:23;;;;;;;14.60;4.03;;;;;;;20.02;46.50;102665.63;4975087;28;20061;-85
2023/05/17 06:15:49;;;;;;;9.93;3.60;;;;;;;20.90;44.63;102658.09;4975078;28;20114;-86
2023/05/17 06:18:15;;;;;;;14.63;3.70;;;;;;;21.15;44.51;102664.91;4974995;28;20092;-86
2023/05/17 06:20:40;;;;;;;11.68;3.20;;;;;;;21.29;43.57;102676.97;4973270;28;20027;-77
2023/05/17 06:23:06;;;;;;;9.95;2.95;;;;;;;21.84;43.58;102675.16;4975431;28;20109;-75
2023/05/17 06:25:34;;;;;;;9.98;3.38;;;;;;;22.27;40.64;102661.13;4974740;28;20170;-75
2023/05/17 06:28:01;;;;;;;12.10;3.42;;;;;;;22.60;40.09;102650.34;4974425;28;20023;-77
2023/05/17 06:30:27;;;;;;;11.27;2.85;;;;;;;23.05;39.97;102686.91;4974744;28;20077;-73
2023/05/17 06:32:52;;;;;;;12.13;3.33;;;;;;;23.61;38.26;102683.78;4957302;28;20595;-74
2023/05/17 06:35:18;;;;;;;13.52;2.85;;;;;;;23.32;38.86;102659.13;4974574;28;20034;-75
2023/05/17 06:37:43;;;;;;;10.50;2.92;;;;;;;23.94;36.61;102664.06;4974293;28;20031;-77
2023/05/17 06:40:09;;;;;;;12.35;2.72;;;;;;;24.08;34.56;102681.25;4974156;28;20019;-74
2023/05/17 06:42:34;;;;;;;10.27;2.80;;;;;;;23.64;35.21;102682.66;4974352;28;20026;-75
2023/05/17 06:45:00;;;;;;;9.93;2.72;;;;;;;23.72;35.94;102686.28;4974304;28;20026;-73
2023/05/17 06:47:25;;;;;;;9.35;2.28;;;;;;;23.20;35.39;102690.00;4974376;28;20031;-75
2023/05/17 06:49:51;;;;;;;9.70;2.30;;;;;;;23.40;34.31;102681.22;4974150;28;20545;-76
2023/05/17 06:52:16;;;;;;;13.10;2.60;;;;;;;22.38;36.32;102686.53;4974284;28;20019;-78
2023/05/17 06:54:41;;;;;;;13.77;2.95;;;;;;;21.72;37.51;102691.91;4974295;28;20041;-76
2023/05/17 06:57:08;;;;;;;13.07;2.97;;;;;;;20.75;40.49;102698.69;4974489;28;20031;-76
2023/05/17 06:59:34;;;;;;;11.38;2.80;;;;;;;19.46;42.40;102701.16;4974407;28;20076;-76
2023/05/17 07:02:00;;;;;;;14.25;2.78;;;;;;;18.11;43.05;102698.19;4956781;28;20039;-75
2023/05/17 07:04:25;;;;;;;10.15;2.38;;;;;;;17.30;45.64;102683.22;4957279;28;20041;-75
2023/05/17 07:06:51;;;;;;;12.60;2.90;;;;;;;17.91;45.05;102702.91;4974023;28;20041;-76
2023/05/17 07:09:17;;;;;;;8.98;2.70;;;;;;;19.08;42.30;102701.25;4974337;28;20101;-75
2023/05/17 07:11:43;;;;;;;9.40;2.20;;;;;;;19.36;40.84;102659.06;4973338;28;20601;-76
2023/05/17 07:14:08;;;;;;;10.32;2.90;;;;;;;19.87;39.74;102679.88;4974107;28;20106;-77
2023/05/17 07:16:33;;;;;;;10.80;2.97;;;;;;;20.62;38.82;102701.38;4974254;28;20374;-77
2023/05/17 07:18:59;;;;;;;11.18;2.72;;;;;;;20.95;38.81;102706.81;4973990;28;20057;-79
2023/05/17 07:21:24;;;;;;;10.57;2.10;;;;;;;20.83;37.75;102705.94;4973676;28;20106;-79
2023/05/17 07:23:50;;;;;;;10.52;3.15;;;;;;;20.95;36.95;102712.91;4973821;28;20070;-77
2023/05/17 07:26:18;;;;;;;10.88;2.55;;;;;;;19.62;37.38;102711.44;4973847;28;20038;-78
2023/05/17 07:28:44;;;;;;;13.25;3.00;;;;;;;17.91;40.34;102715.97;4974121;28;20050;-76
2023/05/17 07:31:09;;;;;;;11.60;2.35;;;;;;;16.80;44.60;102720.22;4973904;28;20474;-78
2023/05/17 07:33:36;;;;;;;9.35;2.30;;;;;;;16.09;47.33;102714.75;4974044;28;20031;-81
2023/05/17 07:36:01;;;;;;;11.35;2.55;;;;;;;15.68;48.38;102723.94;4973804;28;20456;-79
2023/05/17 07:38:26;;;;;;;13.52;2.65;;;;;;;15.24;48.84;102715.88;4973877;28;20035;-80
2023/05/17 07:40:52;;;;;;;10.15;2.33;;;;;;;15.08;47.34;102718.41;4973716;28;20030;-86
2023/05/17 07:43:17;;;;;;;13.57;2.72;;;;;;;15.06;50.35;102724.63;4973921;28;20054;-87
2023/05/17 07:45:42;;;;;;;11.30;2.50;;;;;;;14.89;50.17;102725.47;4974010;28;20398;-87
2023/05/17 07:48:08;;;;;;;11.95;3.05;;;;;;;14.71;49.46;102736.81;4973886;28;20085;-77
2023/05/17 07:50:33;;;;;;;12.13;2.38;;;;;;;14.66;50.82;102742.25;4972509;28;20085;-80
2023/05/17 07:52:58;;;;;;;13.50;2.65;;;;;;;14.15;50.82;102736.00;4974158;28;20038;-80
2023/05/17 07:55:24;;;;;;;10.23;1.80;;;;;;;13.73;51.36;102754.44;4973506;28;20041;-77
2023/05/17 07:57:49;;;;;;;13.35;2.83;;;;;;;13.44;51.86;102751.41;4973339;28;20023;-76
2023/05/17 08:00:18;;;;;;;11.23;2.75;;;;;;;13.48;52.77;102746.94;4956014;28;20117;-80
2023/05/17 08:02:44;;;;;;;11.18;2.15;;;;;;;13.98;54.51;102752.41;4973623;28;20482;-78
2023/05/17 08:05:10;;;;;;;11.40;2.70;;;;;;;14.33;52.70;102742.94;4973398;28;20035;-75
2023/05/17 08:07:35;;;;;;;10.90;2.30;;;;;;;14.40;51.66;102716.66;4973366;28;20055;-77
2023/05/17 08:10:01;;;;;;;10.40;2.33;;;;;;;14.49;52.11;102743.06;4973405;28;20034;-76
2023/05/17 08:12:26;;;;;;;10.45;2.30;;;;;;;14.61;51.41;102742.47;4972013;28;20043;-75
2023/05/17 08:14:51;;;;;;;11.85;2.45;;;;;;;15.00;50.71;102749.19;4973558;28;20544;-82
2023/05/17 08:17:17;;;;;;;11.52;2.70;;;;;;;15.10;51.87;102741.75;4973651;28;20027;-76
2023/05/17 08:19:43;;;;;;;9.88;2.30;;;;;;;14.92;49.33;102744.38;4973569;28;20088;-80
2023/05/17 08:22:09;;;;;;;6.90;2.35;;;;;;;14.59;48.75;102753.88;4973361;28;20031;-81
2023/05/17 08:24:34;;;;;;;8.90;1.90;;;;;;;14.13;50.02;102700.63;4976338;28;20054;-82
2023/05/17 08:27:00;;;;;;;8.35;2.08;;;;;;;14.45;50.15;102758.88;4976890;28;20113;-80
2023/05/17 08:29:25;;;;;;;11.93;2.15;;;;;;;14.75;49.91;102741.78;4976856;28;20034;-80
2023/05/17 08:31:51;;;;;;;10.07;2.20;;;;;;;14.72;48.51;102738.50;4976956;28;20031;-82
2023/05/17 08:34:16;;;;;;;8.00;1.90;;;;;;;14.51;48.80;102759.44;4976815;28;20031;-83
2023/05/17 08:36:43;;;;;;;9.50;2.15;;;;;;;14.11;50.03;102705.06;4959443;28;20046;-79
2023/05/17 08:39:08;;;;;;;8.95;1.77;;;;;;;14.42;49.60;102752.03;4976032;28;20027;-82
2023/05/17 08:41:34;;;;;;;10.68;2.25;;;;;;;14.44;49.90;102745.00;4976852;28;20045;-75
2023/05/17 08:44:02;;;;;;;8.57;1.80;;;;;;;14.75;50.38;102749.59;4977094;28;20027;-80
2023/05/17 08:46:28;;;;;;;7.25;1.90;;;;;;;14.66;47.91;102728.41;4976580;28;20360;-75
2023/05/17 08:48:58;;;;;;;6.70;1.83;;;;;;;14.94;48.84;102741.69;4976563;28;20034;-79
2023/05/17 08:51:25;;;;;;;9.10;2.08;;;;;;;14.78;48.13;102751.19;4976466;28;20033;-76
2023/05/17 08:53:50;;;;;;;7.63;1.90;;;;;;;14.52;47.10;102747.28;4976231;28;20086;-85
2023/05/17 08:56:18;;;;;;;10.73;1.85;;;;;;;14.32;49.27;102753.41;4976652;28;20035;-88
2023/05/17 08:58:45;;;;;;;8.68;2.20;;;;;;;14.23;48.59;102752.09;4976146;28;20030;-87
2023/05/17 09:01:11;;;;;;;10.32;2.25;;;;;;;14.39;48.36;102744.41;4976209;28;20525;-85
2023/05/17 09:03:39;;;;;;;8.75;1.98;;;;;;;14.87;48.89;102754.19;4976353;28;20022;-87
2023/05/17 09:06:05;;;;;;;12.68;2.30;;;;;;;15.03;49.43;102749.03;4976550;28;20433;-85
2023/05/17 09:08:31;;;;;;;11.73;2.15;;;;;;;15.16;48.50;102757.06;4976364;28;20536;-75
2023/05/17 09:10:58;;;;;;;10.38;2.08;;;;;;;14.69;49.74;102747.28;4975753;28;20117;-76
2023/05/17 09:13:24;;;;;;;9.48;2.53;;;;;;;14.27;50.08;102732.84;4975642;28;20493;-75
2023/05/17 09:15:50;;;;;;;8.30;2.13;;;;;;;14.37;50.79;102767.03;4975950;28;20118;-74
2023/05/17 09:18:15;;;;;;;12.13;2.10;;;;;;;14.38;52.56;102765.28;4976109;28;20034;-78
2023/05/17 09:20:41;;;;;;;13.15;2.55;;;;;;;14.26;53.07;102712.97;4975963;28;20027;-76
2023/05/17 09:23:14;;;;;;;10.05;2.10;;;;;;;14.56;51.68;102738.44;4975918;28;20478;-75
2023/05/17 09:25:47;;;;;;;11.82;2.40;;;;;;;14.97;52.21;102758.91;4975473;28;20038;-75
2023/05/17 09:28:13;;;;;;;8.75;1.80;;;;;;;15.40;49.27;102762.75;4975760;28;20105;-77
2023/05/17 09:30:38;;;;;;;10.35;1.90;;;;;;;15.77;46.33;102759.91;4975881;28;20081;-75
2023/05/17 09:33:08;;;;;;;9.10;2.08;;;;;;;15.68;46.97;102763.00;4975802;28;20038;-88
2023/05/17 09:35:35;;;;;;;9.13;1.98;;;;;;;15.54;46.73;102762.88;4975034;28;20027;-89
2023/05/17 09:38:08;;;;;;;9.68;2.05;;;;;;;15.01;47.31;102735.25;4975654;28;20484;-88
2023/05/17 09:40:38;;;;;;;8.13;2.17;;;;;;;15.07;49.19;102763.56;4975357;28;20424;-88
2023/05/17 09:43:03;;;;;;;8.77;1.98;;;;;;;14.96;46.42;102734.66;4975577;28;20034;-89
2023/05/17 09:45:31;;;;;;;8.35;1.88;;;;;;;15.19;45.22;102718.69;4975452;28;20034;-87
2023/05/17 09:47:56;;;;;;;11.75;2.47;;;;;;;15.62;45.88;102755.50;4958171;28;20107;-89
2023/05/17 09:50:22;;;;;;;11.45;2.22;;;;;;;15.59;45.84;102752.19;4975358;28;20047;-74
2023/05/17 09:52:47;;;;;;;9.55;2.30;;;;;;;15.09;48.80;102738.31;4975023;28;20443;-74
2023/05/17 09:55:14;;;;;;;7.50;2.20;;;;;;;14.69;49.19;102756.84;4975120;28;20035;-76
2023/05/17 09:57:40;;;;;;;9.27;2.13;;;;;;;14.45;50.79;102723.31;4975101;28;20054;-76
2023/05/17 10:00:11;;;;;;;7.97;2.28;;;;;;;15.08;49.12;102752.25;4975515;28;20034;-73
2023/05/17 10:02:39;;;;;;;8.75;1.90;;;;;;;15.12;50.88;102725.13;4975217;28;20029;-77
2023/05/17 10:05:09;;;;;;;9.20;2.40;;;;;;;15.35;48.51;102744.78;4974983;28;20037;-75
2023/05/17 10:07:36;;;;;;;8.25;2.30;;;;;;;15.24;47.75;102769.66;4974730;28;20031;-76
2023/05/17 10:10:02;;;;;;;8.38;1.75;;;;;;;15.11;47.33;102762.47;4974682;28;20068;-74
2023/05/17 10:12:28;;;;;;;8.70;2.08;;;;;;;14.89;45.24;102710.72;4974895;28;20181;-76
2023/05/17 10:14:54;;;;;;;9.32;2.20;;;;;;;15.09;45.83;102737.47;4957721;28;20487;-77
2023/05/17 10:17:20;;;;;;;9.20;1.63;;;;;;;15.00;47.42;102764.78;4974869;28;20533;-76
2023/05/17 10:19:46;;;;;;;8.82;1.95;;;;;;;14.66;47.02;102770.84;4974659;28;20102;-78
2023/05/17 10:22:13;;;;;;;9.93;2.28;;;;;;;14.45;46.33;102743.28;4974593;28;20501;-77
2023/05/17 10:24:39;;;;;;;7.05;1.60;;;;;;;14.83;46.63;102762.19;4974505;28;20023;-78
2023/05/17 10:27:08;;;;;;;8.82;1.98;;;;;;;14.98;46.01;102760.59;4974672;28;20027;-77
2023/05/17 10:29:36;;;;;;;7.03;1.65;;;;;;;14.97;46.10;102746.75;4974906;28;20042;-78
2023/05/17 10:32:04;;;;;;;7.68;1.73;;;;;;;14.80;45.57;102720.75;4974761;28;20174;-77
2023/05/17 10:34:30;;;;;;;9.55;2.05;;;;;;;14.86;45.12;102723.88;4974724;28;20026;-78
2023/05/17 10:36:56;;;;;;;5.47;1.60;;;;;;;14.38;43.75;102661.31;4974484;28;20053;-77
2023/05/17 10:39:23;;;;;;;7.65;1.63;;;;;;;14.79;45.46;102735.50;4973319;23;20130;-79
2023/05/17 10:41:51;;;;;;;7.00;1.33;;;;;;;14.90;44.86;102732.38;4955202;29;20061;-77
2023/05/17 10:44:17;;;;;;;9.15;1.88;;;;;;;14.67;44.73;102711.88;4955141;29;20486;-78
2023/05/17 10:46:56;;;;;;;8.38;1.88;;;;;;;14.99;45.69;102750.09;4954291;28;20051;-79
2023/05/17 10:49:25;;;;;;;9.20;2.10;;;;;;;14.97;45.78;102735.50;4954841;29;20038;-79
2023/05/17 10:51:51;;;;;;;9.10;1.83;;;;;;;14.76;44.85;102694.06;4955105;29;20027;-77
2023/05/17 10:54:17;;;;;;;7.05;1.85;;;;;;;14.87;47.15;102704.75;4954682;29;20046;-78
2023/05/17 10:56:53;;;;;;;6.40;1.67;;;;;;;14.82;49.43;102696.31;4954998;29;20027;-81
2023/05/17 10:59:28;;;;;;;6.40;1.80;;;;;;;15.18;47.15;102737.84;4955130;29;20027;-78
2023/05/17 11:01:58;;;;;;;8.70;1.95;;;;;;;15.15;44.10;102745.81;4954921;29;20042;-77
2023/05/17 11:04:38;;;;;;;6.53;1.70;;;;;;;14.97;44.76;102697.31;4937213;29;20038;-79
2023/05/17 11:07:15;;;;;;;8.23;1.65;;;;;;;15.24;46.28;102730.63;4954763;29;20114;-77
2023/05/17 11:09:42;;;;;;;8.55;1.90;;;;;;;15.01;46.22;102706.63;4954649;29;20058;-76
2023/05/17 11:12:11;;;;;;;7.20;1.50;;;;;;;15.23;45.43;102728.94;4954686;29;20486;-82
2023/05/17 11:14:53;;;;;;;8.52;1.73;;;;;;;15.21;46.49;102723.81;4954873;29;20475;-80
2023/05/17 11:17:43;;;;;;;6.20;1.73;;;;;;;15.15;45.87;102722.38;4954378;29;20486;-76